Time;durP1;ratioP1;P1;durP2;ratioP2;P2;SDS_P1;SDS_P2;PMS_P1;PMS_P2;Temp;Humidity;BMP_temperature;BMP_pressure;BME280_temperature;BME280_humidity;BME280_pressure;Samples;Min_cycle;Max_cycle;Signal;HPM_P1;HPM_P2
2023/10/14 00:01:28;;;;;;;4.97;1.13;;;;;;;13.45;100.00;100155.97;6216194;23;20005;-79
2023/10/14 00:03:56;;;;;;;4.72;1.10;;;;;;;13.27;100.00;100147.16;6216461;23;20009;-82
2023/10/14 00:06:22;;;;;;;5.25;1.23;;;;;;;13.42;100.00;100171.81;6216303;23;20000;-77
2023/10/14 00:08:56;;;;;;;4.18;1.00;;;;;;;13.38;100.00;100165.25;6215946;23;20043;-81
2023/10/14 00:11:22;;;;;;;2.38;0.80;;;;;;;13.34;100.00;100181.19;6216352;23;20004;-80
2023/10/14 00:13:49;;;;;;;3.78;0.98;;;;;;;13.34;100.00;100183.78;6216331;23;20016;-76
2023/10/14 00:18:55;;;;;;;3.40;0.80;;;;;;;13.36;100.00;100174.91;6215458;23;20012;-75
2023/10/14 00:21:23;;;;;;;1.83;0.80;;;;;;;13.37;100.00;100192.16;6215555;23;20032;-75
2023/10/14 00:23:50;;;;;;;3.17;0.70;;;;;;;13.20;100.00;100154.66;6215553;23;20510;-76
2023/10/14 00:26:16;;;;;;;4.65;0.93;;;;;;;13.27;100.00;100186.06;6215785;23;19996;-75
2023/10/14 00:28:45;;;;;;;4.03;0.68;;;;;;;13.24;100.00;100194.13;6216161;23;20044;-79
2023/10/14 00:31:11;;;;;;;1.02;0.43;;;;;;;13.12;100.00;100189.94;6215948;23;20000;-74
2023/10/14 00:33:37;;;;;;;2.78;0.43;;;;;;;13.09;100.00;100198.78;6189148;23;20011;-78
2023/10/14 00:36:03;;;;;;;3.33;0.57;;;;;;;13.12;100.00;100182.16;6215676;23;20054;-82
2023/10/14 00:38:34;;;;;;;3.08;0.55;;;;;;;13.10;100.00;100204.78;6215667;23;20068;-81
2023/10/14 00:40:59;;;;;;;1.55;0.45;;;;;;;13.12;100.00;100228.81;6215552;23;20044;-74
2023/10/14 00:43:25;;;;;;;2.00;0.50;;;;;;;13.13;100.00;100230.47;6215817;23;20439;-82
2023/10/14 00:45:52;;;;;;;3.58;0.68;;;;;;;13.15;100.00;100233.75;6215223;23;20054;-82
2023/10/14 00:48:27;;;;;;;2.97;0.65;;;;;;;13.12;100.00;100252.97;6215080;23;20004;-75
2023/10/14 00:50:58;;;;;;;1.40;0.60;;;;;;;13.13;100.00;100256.38;6215695;23;20438;-75
2023/10/14 00:53:27;;;;;;;2.40;0.75;;;;;;;13.18;100.00;100259.44;6215702;23;20005;-80
2023/10/14 00:55:54;;;;;;;1.67;0.85;;;;;;;13.16;100.00;100259.53;6215602;23;20008;-83
2023/10/14 00:58:28;;;;;;;3.78;0.80;;;;;;;13.18;100.00;100262.84;6215414;23;20353;-74
2023/10/14 01:00:59;;;;;;;2.63;1.05;;;;;;;13.25;100.00;100262.34;6215158;23;20552;-81
2023/10/14 01:03:31;;;;;;;5.45;1.38;;;;;;;13.21;100.00;100264.38;6215628;23;20005;-76
2023/10/14 01:05:56;;;;;;;2.13;1.20;;;;;;;13.22;100.00;100270.38;6215430;23;20054;-80
2023/10/14 01:08:25;;;;;;;4.70;1.42;;;;;;;13.17;100.00;100301.84;6215454;23;20001;-77
2023/10/14 01:10:52;;;;;;;5.88;1.35;;;;;;;12.99;100.00;100313.72;6215723;23;20331;-75
2023/10/14 01:13:22;;;;;;;6.22;1.40;;;;;;;12.75;100.00;100313.91;6215191;23;20015;-75
2023/10/14 01:15:51;;;;;;;5.60;1.23;;;;;;;12.54;100.00;100298.31;6215392;23;20075;-77
2023/10/14 01:18:17;;;;;;;7.75;1.52;;;;;;;12.47;100.00;100310.94;6215157;23;20008;-77
2023/10/14 01:20:44;;;;;;;6.15;1.70;;;;;;;12.26;100.00;100291.91;6213497;23;20439;-77
2023/10/14 01:23:16;;;;;;;6.85;1.60;;;;;;;12.33;100.00;100306.03;6215122;23;20004;-78
2023/10/14 01:25:51;;;;;;;8.60;1.70;;;;;;;12.20;100.00;100302.75;6215372;23;20024;-76
2023/10/14 01:28:29;;;;;;;7.93;1.75;;;;;;;12.12;100.00;100308.53;6215044;23;21004;-74
2023/10/14 01:33:50;;;;;;;9.30;1.98;;;;;;;12.05;100.00;100320.28;6222545;23;20030;-77
2023/10/14 01:36:15;;;;;;;5.18;1.77;;;;;;;12.15;100.00;100349.69;6214968;23;20075;-81
2023/10/14 01:38:41;;;;;;;8.68;1.83;;;;;;;12.11;100.00;100344.88;6215297;23;20000;-74
2023/10/14 01:41:06;;;;;;;8.57;1.98;;;;;;;11.97;100.00;100315.69;6215467;23;20388;-83
2023/10/14 01:43:32;;;;;;;6.28;1.77;;;;;;;12.31;100.00;100368.28;6213405;23;20028;-81
2023/10/14 01:48:25;;;;;;;7.55;2.25;;;;;;;12.09;100.00;100412.28;6225996;23;20012;-81
2023/10/14 01:50:54;;;;;;;13.38;2.50;;;;;;;11.77;100.00;100418.06;6215264;23;20035;-82
2023/10/14 01:53:23;;;;;;;14.07;2.80;;;;;;;11.59;100.00;100406.50;6215203;23;20322;-83
2023/10/14 01:55:54;;;;;;;17.63;3.10;;;;;;;11.32;100.00;100393.03;6215423;23;20411;-83
2023/10/14 01:58:30;;;;;;;15.60;2.63;;;;;;;11.47;100.00;100420.34;6215101;23;20004;-84
2023/10/14 02:00:59;;;;;;;13.45;2.67;;;;;;;11.50;100.00;100438.22;6215432;23;20005;-84
2023/10/14 02:03:26;;;;;;;12.35;2.28;;;;;;;11.29;100.00;100419.09;6215651;23;20004;-83
2023/10/14 02:05:52;;;;;;;10.48;2.78;;;;;;;11.42;100.00;100453.47;6215329;23;20073;-77
2023/10/14 02:08:21;;;;;;;19.02;2.75;;;;;;;11.52;100.00;100462.22;6215253;23;20493;-79
2023/10/14 02:10:47;;;;;;;12.20;2.63;;;;;;;11.36;100.00;100446.16;6215278;23;20001;-74
2023/10/14 02:13:19;;;;;;;12.35;2.22;;;;;;;11.41;100.00;100451.84;6215256;23;20012;-82
2023/10/14 02:15:47;;;;;;;14.35;2.88;;;;;;;11.49;100.00;100452.91;6215272;23;20005;-76
2023/10/14 02:18:21;;;;;;;12.35;2.38;;;;;;;11.59;100.00;100472.91;6215284;23;20003;-83
2023/10/14 02:20:57;;;;;;;11.10;2.13;;;;;;;11.64;100.00;100482.00;6217367;23;20009;-78
2023/10/14 02:23:27;;;;;;;14.65;2.20;;;;;;;11.61;100.00;100486.59;6220196;23;20075;-76
2023/10/14 02:25:56;;;;;;;11.50;2.47;;;;;;;11.57;100.00;100498.91;6216824;23;20012;-83
2023/10/14 02:28:22;;;;;;;14.75;2.78;;;;;;;11.55;100.00;100497.38;6215300;23;20000;-76
2023/10/14 02:30:51;;;;;;;14.82;2.55;;;;;;;11.53;100.00;100512.19;6215748;23;20087;-77
2023/10/14 02:33:18;;;;;;;9.77;2.55;;;;;;;11.25;100.00;100471.94;6215181;23;20001;-78
2023/10/14 02:35:44;;;;;;;12.50;2.50;;;;;;;11.38;100.00;100512.31;6214801;23;20039;-77
2023/10/14 02:38:09;;;;;;;18.33;2.55;;;;;;;11.36;100.00;100518.53;6214906;23;20083;-78
2023/10/14 02:40:37;;;;;;;10.32;2.75;;;;;;;11.30;100.00;100540.47;6214235;23;20012;-76
2023/10/14 02:43:04;;;;;;;12.10;2.40;;;;;;;11.15;100.00;100526.88;6215039;23;20075;-79
2023/10/14 02:45:38;;;;;;;9.90;2.40;;;;;;;11.24;100.00;100550.44;6213364;23;20017;-80
2023/10/14 02:48:04;;;;;;;12.25;2.50;;;;;;;11.17;100.00;100544.84;6216978;23;20019;-77
2023/10/14 02:50:31;;;;;;;15.20;2.90;;;;;;;11.18;100.00;100568.00;6216848;23;20008;-76
2023/10/14 02:53:01;;;;;;;12.30;2.47;;;;;;;11.10;100.00;100562.53;6215305;23;20001;-82
2023/10/14 02:55:42;;;;;;;11.70;2.78;;;;;;;11.05;100.00;100577.56;6217041;23;20000;-77
2023/10/14 02:58:08;;;;;;;15.50;3.08;;;;;;;10.93;100.00;100577.56;6215104;23;20008;-79
2023/10/14 03:00:33;;;;;;;14.38;2.85;;;;;;;10.88;100.00;100594.19;6216859;23;20023;-83
2023/10/14 03:03:10;;;;;;;12.27;2.47;;;;;;;10.81;100.00;100605.03;6216987;23;20008;-84
2023/10/14 03:05:37;;;;;;;11.90;2.15;;;;;;;10.62;100.00;100595.97;6216825;23;20430;-77
2023/10/14 03:08:16;;;;;;;12.93;3.05;;;;;;;10.63;100.00;100612.28;6216746;23;20027;-84
2023/10/14 03:10:55;;;;;;;14.00;2.55;;;;;;;10.52;100.00;100609.56;6217124;23;20000;-80
2023/10/14 03:13:22;;;;;;;12.15;2.70;;;;;;;10.53;100.00;100629.31;6216904;23;20012;-80
2023/10/14 03:15:52;;;;;;;8.73;2.85;;;;;;;10.47;100.00;100638.28;6216797;23;20055;-78
2023/10/14 03:18:18;;;;;;;10.30;2.78;;;;;;;10.41;100.00;100645.59;6216887;23;20004;-76
2023/10/14 03:23:25;;;;;;;12.85;3.03;;;;;;;10.20;100.00;100656.34;6226680;23;20108;-77
2023/10/14 03:26:14;;;;;;;13.50;2.50;;;;;;;10.20;100.00;100666.66;6216639;23;20012;-83
2023/10/14 03:28:44;;;;;;;16.08;2.97;;;;;;;10.06;100.00;100666.72;6216678;23;20008;-80
2023/10/14 03:31:14;;;;;;;11.00;2.65;;;;;;;9.92;100.00;100657.25;6216627;23;20027;-78
2023/10/14 03:33:43;;;;;;;14.60;2.60;;;;;;;9.94;100.00;100681.22;6216916;23;20001;-82
2023/10/14 03:36:15;;;;;;;12.00;2.58;;;;;;;9.89;100.00;100688.41;6216159;23;20078;-81
2023/10/14 03:38:41;;;;;;;14.52;3.30;;;;;;;9.82;100.00;100701.78;6216854;23;20008;-78
2023/10/14 03:41:17;;;;;;;13.20;2.72;;;;;;;9.69;100.00;100702.53;6216449;23;20015;-71
2023/10/14 03:43:54;;;;;;;11.20;3.17;;;;;;;9.39;100.00;100671.72;6216179;23;20028;-72
2023/10/14 03:49:20;;;;;;;16.83;3.35;;;;;;;9.48;100.00;100707.25;6216186;23;20016;-72
2023/10/14 03:51:52;;;;;;;14.18;2.97;;;;;;;9.47;100.00;100717.66;6216010;23;20004;-73
2023/10/14 03:54:23;;;;;;;11.88;2.08;;;;;;;9.45;100.00;100724.66;6216219;23;20004;-74
2023/10/14 03:56:50;;;;;;;;;;;;;;;9.37;100.00;100732.84;6216784;23;20011;-75
2023/10/14 03:59:23;;;;;;;11.88;2.72;;;;;;;9.37;100.00;100732.00;6215877;23;20234;-75
2023/10/14 04:01:54;;;;;;;14.23;2.67;;;;;;;9.13;100.00;100711.91;6216141;23;20012;-74
2023/10/14 04:04:21;;;;;;;13.07;2.83;;;;;;;9.29;100.00;100747.91;6216025;23;20004;-76
2023/10/14 04:09:38;;;;;;;18.00;2.88;;;;;;;9.18;100.00;100750.31;6226664;23;20341;-76
2023/10/14 04:12:53;;;;;;;13.50;3.00;;;;;;;9.14;100.00;100762.53;6216025;23;20027;-77
2023/10/14 04:14:54;;;;;;;16.13;3.30;;;;;;;8.94;100.00;100739.66;6200812;23;20427;-79
2023/10/14 04:17:21;;;;;;;12.27;2.63;;;;;;;9.11;100.00;100777.34;6215930;23;20193;-75
2023/10/14 04:19:47;;;;;;;13.55;2.50;;;;;;;8.91;100.00;100756.13;6216160;23;20051;-81
2023/10/14 04:22:32;;;;;;;14.32;2.83;;;;;;;8.91;100.00;100763.03;6215575;23;20419;-76
2023/10/14 04:25:18;;;;;;;15.52;2.85;;;;;;;8.98;100.00;100797.00;6189297;23;20478;-74
2023/10/14 04:28:17;;;;;;;13.30;3.10;;;;;;;8.95;100.00;100802.28;6215990;23;20001;-81
2023/10/14 04:35:26;;;;;;;12.57;2.80;;;;;;;8.84;100.00;100811.44;6226463;23;20013;-81
2023/10/14 04:37:53;;;;;;;16.05;3.05;;;;;;;8.86;100.00;100819.94;6188069;23;20009;-74
2023/10/14 04:45:45;;;;;;;16.90;3.42;;;;;;;8.80;100.00;100838.31;6217246;23;20469;-75
2023/10/14 04:48:12;;;;;;;13.25;3.00;;;;;;;8.77;100.00;100838.47;6215756;23;20001;-81
2023/10/14 04:50:38;;;;;;;14.13;2.88;;;;;;;8.69;100.00;100832.09;6215535;23;20415;-77
2023/10/14 04:53:05;;;;;;;14.93;3.20;;;;;;;8.79;100.00;100844.38;6215370;23;20009;-75
2023/10/14 04:55:36;;;;;;;18.02;3.47;;;;;;;8.75;100.00;100853.19;6215803;23;19996;-73
2023/10/14 05:00:48;;;;;;;16.60;3.50;;;;;;;8.43;100.00;100815.47;6226001;23;20044;-76
2023/10/14 05:03:19;;;;;;;16.55;2.70;;;;;;;8.57;100.00;100849.03;6215626;23;20008;-77
2023/10/14 05:06:14;;;;;;;15.98;3.10;;;;;;;8.51;100.00;100847.63;6215416;23;20009;-75
2023/10/14 05:09:00;;;;;;;14.25;3.08;;;;;;;8.66;100.00;100874.28;6215100;23;20004;-75
2023/10/14 05:11:26;;;;;;;15.00;3.53;;;;;;;8.41;100.00;100836.16;6215720;23;20008;-75
2023/10/14 05:14:10;;;;;;;15.82;3.67;;;;;;;8.60;100.00;100885.72;6187480;23;20386;-75
2023/10/14 05:16:53;;;;;;;13.57;3.10;;;;;;;8.66;100.00;100889.72;6215345;23;20036;-77
2023/10/14 05:19:35;;;;;;;15.13;3.05;;;;;;;8.64;100.00;100894.09;6215371;23;20339;-79
2023/10/14 05:22:10;;;;;;;16.02;3.47;;;;;;;8.49;100.00;100879.50;6215087;23;20426;-75
2023/10/14 05:24:36;;;;;;;15.18;3.50;;;;;;;8.51;100.00;100883.66;6215341;23;20036;-84
2023/10/14 05:27:02;;;;;;;15.75;3.35;;;;;;;8.63;100.00;100906.16;6215300;23;20001;-75
2023/10/14 05:29:28;;;;;;;16.25;3.35;;;;;;;8.67;100.00;100911.16;6215785;23;20036;-79
2023/10/14 05:32:10;;;;;;;11.90;2.97;;;;;;;8.66;100.00;100906.91;6188538;23;20030;-74
2023/10/14 05:34:35;;;;;;;13.25;3.55;;;;;;;8.54;100.00;100898.91;6219674;23;20055;-73
2023/10/14 05:37:02;;;;;;;17.35;3.70;;;;;;;8.68;100.00;100913.66;6217552;23;20350;-74
2023/10/14 05:39:27;;;;;;;13.68;3.10;;;;;;;8.55;100.00;100904.88;6215776;23;20008;-82
2023/10/14 05:41:58;;;;;;;14.68;2.97;;;;;;;8.63;100.00;100929.31;6215389;23;20047;-81
2023/10/14 05:44:29;;;;;;;15.15;3.55;;;;;;;8.55;100.00;100921.19;6215163;23;20342;-83
2023/10/14 05:46:55;;;;;;;;;;;;;;;8.61;100.00;100944.00;6216216;23;20099;-74
2023/10/14 05:49:24;;;;;;;17.55;3.80;;;;;;;8.56;100.00;100935.72;6215428;23;19939;-83
2023/10/14 05:51:53;;;;;;;14.27;3.58;;;;;;;8.58;100.00;100958.81;6212732;23;20070;-80
2023/10/14 05:54:22;;;;;;;13.00;3.17;;;;;;;8.46;100.00;100944.00;6213028;23;20008;-76
2023/10/14 05:56:50;;;;;;;12.68;3.00;;;;;;;8.48;100.00;100955.06;6213455;23;20035;-78
2023/10/14 05:59:17;;;;;;;20.92;3.60;;;;;;;8.53;100.00;100964.19;6215228;23;20093;-77
2023/10/14 06:01:45;;;;;;;16.60;3.28;;;;;;;8.31;100.00;100948.16;6215382;23;20013;-74
2023/10/14 06:04:14;;;;;;;12.77;3.00;;;;;;;8.53;100.00;100978.78;6215671;23;20088;-82
2023/10/14 06:06:41;;;;;;;14.90;3.60;;;;;;;8.55;100.00;100976.97;6215078;23;20005;-77
2023/10/14 06:09:08;;;;;;;10.15;2.70;;;;;;;8.60;100.00;100987.88;6213715;23;20031;-82
2023/10/14 06:11:33;;;;;;;10.18;2.60;;;;;;;8.57;100.00;100977.72;6189730;23;20000;-81
2023/10/14 06:14:02;;;;;;;15.30;3.50;;;;;;;8.78;100.00;100993.78;6215631;23;20031;-80
2023/10/14 06:16:29;;;;;;;13.63;3.15;;;;;;;8.75;100.00;100986.22;6214467;23;20011;-79
2023/10/14 06:18:59;;;;;;;12.25;3.42;;;;;;;8.94;100.00;101017.81;6188930;23;20042;-78
2023/10/14 06:21:27;;;;;;;13.88;3.00;;;;;;;9.01;100.00;101020.91;6214850;23;20015;-75
2023/10/14 06:23:53;;;;;;;15.18;3.42;;;;;;;9.10;100.00;101028.97;6214731;23;20005;-78
2023/10/14 06:26:19;;;;;;;13.82;3.22;;;;;;;9.15;100.00;101026.16;6214413;23;20001;-76
2023/10/14 06:28:45;;;;;;;15.10;3.70;;;;;;;9.22;100.00;101036.94;6214595;23;20419;-73
2023/10/14 06:31:11;;;;;;;12.60;3.17;;;;;;;9.23;100.00;101038.59;6214781;23;20054;-79
2023/10/14 06:33:40;;;;;;;16.17;2.97;;;;;;;9.23;100.00;101031.72;6212699;23;20004;-78
2023/10/14 06:36:07;;;;;;;21.67;3.35;;;;;;;9.36;100.00;101050.75;6214907;23;20072;-77
2023/10/14 06:38:33;;;;;;;12.45;2.92;;;;;;;9.41;100.00;101053.06;6214381;23;19997;-73
2023/10/14 06:41:01;;;;;;;13.70;2.75;;;;;;;9.41;100.00;101065.97;6214790;23;20051;-77
2023/10/14 06:43:27;;;;;;;13.73;3.15;;;;;;;9.33;100.00;101055.22;6188202;23;20083;-77
2023/10/14 06:45:54;;;;;;;12.90;3.00;;;;;;;8.98;100.00;101005.63;6214548;23;20343;-81
2023/10/14 06:48:19;;;;;;;12.60;4.05;;;;;;;9.26;100.00;101062.47;6214680;23;20012;-72
2023/10/14 06:50:47;;;;;;;12.25;2.92;;;;;;;9.18;100.00;101080.09;6214581;23;20000;-78
2023/10/14 06:53:14;;;;;;;9.95;2.88;;;;;;;9.03;100.00;101073.16;6214554;23;20450;-79
2023/10/14 06:55:40;;;;;;;10.10;2.63;;;;;;;8.80;100.00;101048.63;6214558;23;20016;-78
2023/10/14 06:58:12;;;;;;;14.23;3.20;;;;;;;9.03;100.00;101098.91;6215066;23;20024;-82
2023/10/14 07:00:41;;;;;;;12.13;3.17;;;;;;;8.98;100.00;101100.91;6214565;23;20423;-82
2023/10/14 07:03:14;;;;;;;12.02;3.10;;;;;;;9.03;100.00;101111.78;6214842;23;20005;-75
2023/10/14 07:05:46;;;;;;;12.02;3.10;;;;;;;9.05;100.00;101120.31;6214439;23;20004;-74
2023/10/14 07:08:13;;;;;;;14.48;3.30;;;;;;;8.93;100.00;101098.56;6215050;23;20076;-75
2023/10/14 07:10:39;;;;;;;14.27;3.03;;;;;;;9.08;100.00;101112.41;6212727;23;20008;-83
2023/10/14 07:13:05;;;;;;;14.23;3.60;;;;;;;9.16;100.00;101123.97;6214932;23;20335;-77
2023/10/14 07:15:35;;;;;;;19.13;3.50;;;;;;;9.08;100.00;101114.97;6214931;23;20008;-79
2023/10/14 07:18:01;;;;;;;15.15;3.30;;;;;;;9.21;100.00;101128.88;6214756;23;20014;-82
2023/10/14 07:20:29;;;;;;;16.42;3.40;;;;;;;9.25;100.00;101130.41;6214457;23;20004;-78
2023/10/14 07:22:56;;;;;;;14.40;3.38;;;;;;;9.28;100.00;101132.81;6214579;23;20024;-81
2023/10/14 07:25:23;;;;;;;13.85;3.00;;;;;;;9.36;100.00;101138.38;6214846;23;20004;-82
2023/10/14 07:27:51;;;;;;;17.92;3.78;;;;;;;9.42;100.00;101138.06;6214493;23;20005;-72
2023/10/14 07:30:17;;;;;;;11.23;2.60;;;;;;;9.33;100.00;101129.97;6214123;23;20407;-80
2023/10/14 07:32:47;;;;;;;10.63;2.75;;;;;;;9.44;100.00;101162.03;6215515;23;20009;-75
2023/10/14 07:35:14;;;;;;;15.85;3.60;;;;;;;9.37;100.00;101165.00;6216045;23;20004;-77
2023/10/14 07:37:42;;;;;;;10.77;2.88;;;;;;;9.38;100.00;101174.38;6216273;23;20095;-76
2023/10/14 07:40:11;;;;;;;10.85;3.20;;;;;;;9.38;100.00;101174.38;6214342;23;20346;-78
2023/10/14 07:42:38;;;;;;;13.25;3.15;;;;;;;9.34;100.00;101176.31;6215875;23;20005;-76
2023/10/14 07:45:05;;;;;;;13.45;2.90;;;;;;;9.22;100.00;101148.56;6215841;23;20016;-76
2023/10/14 07:47:30;;;;;;;17.70;3.60;;;;;;;9.48;100.00;101173.81;6216409;23;20012;-81
2023/10/14 07:49:57;;;;;;;10.15;2.90;;;;;;;9.64;100.00;101183.34;6216053;23;20005;-80
2023/10/14 07:52:22;;;;;;;16.02;3.00;;;;;;;9.80;100.00;101194.47;6215914;23;20430;-78
2023/10/14 07:54:51;;;;;;;11.65;2.70;;;;;;;9.80;100.00;101189.31;6215893;23;20009;-78
2023/10/14 07:57:17;;;;;;;12.38;2.97;;;;;;;9.70;100.00;101170.09;6216198;23;20009;-77
2023/10/14 07:59:43;;;;;;;12.13;3.50;;;;;;;9.83;100.00;101183.16;6216059;23;20399;-80
2023/10/14 08:02:10;;;;;;;10.77;2.70;;;;;;;9.71;100.00;101169.19;6215927;23;20008;-79
2023/10/14 08:04:35;;;;;;;12.90;3.28;;;;;;;9.67;100.00;101165.94;6215753;23;20008;-81
2023/10/14 08:07:05;;;;;;;11.00;2.50;;;;;;;9.92;100.00;101211.03;6216385;23;20415;-78
2023/10/14 08:09:32;;;;;;;12.25;2.70;;;;;;;9.64;100.00;101168.69;6215859;23;20079;-78
2023/10/14 08:11:59;;;;;;;12.13;2.88;;;;;;;9.93;100.00;101218.72;6215864;23;20004;-82
2023/10/14 08:14:24;;;;;;;10.77;2.90;;;;;;;9.97;100.00;101220.19;6215721;23;20001;-81
2023/10/14 08:16:50;;;;;;;11.90;2.58;;;;;;;9.90;100.00;101212.88;6215709;23;20087;-81
2023/10/14 08:19:16;;;;;;;11.95;2.42;;;;;;;9.99;100.00;101215.78;6216091;23;20007;-79
2023/10/14 08:21:42;;;;;;;12.45;3.05;;;;;;;9.83;100.00;101186.56;6215957;23;20382;-75
2023/10/14 08:24:08;;;;;;;12.35;3.35;;;;;;;9.89;100.00;101196.56;6215764;23;20330;-83
2023/10/14 08:26:34;;;;;;;12.05;2.65;;;;;;;10.21;100.00;101245.56;6215518;23;20000;-74
2023/10/14 08:29:01;;;;;;;15.93;2.95;;;;;;;10.14;100.00;101219.28;6215949;23;20011;-79
2023/10/14 08:31:28;;;;;;;15.75;2.40;;;;;;;10.37;100.00;101250.78;6213696;23;20000;-85
2023/10/14 08:33:53;;;;;;;16.80;4.22;;;;;;;10.42;100.00;101247.03;6217042;23;20032;-76
2023/10/14 08:36:18;;;;;;;15.32;3.40;;;;;;;10.37;100.00;101228.38;6214748;23;20035;-82
2023/10/14 08:38:44;;;;;;;13.88;2.58;;;;;;;10.53;100.00;101256.75;6212796;23;20014;-79
2023/10/14 08:41:14;;;;;;;12.85;2.90;;;;;;;10.26;100.00;101210.91;6214253;23;20004;-79
2023/10/14 08:43:44;;;;;;;23.70;3.63;;;;;;;10.36;100.00;101221.53;6218457;23;20462;-80
2023/10/14 08:46:12;;;;;;;9.27;2.05;;;;;;;10.71;100.00;101271.19;6217704;23;20009;-79
2023/10/14 08:48:39;;;;;;;12.65;2.63;;;;;;;10.63;100.00;101271.66;6215864;23;20011;-80
2023/10/14 08:51:09;;;;;;;10.88;3.00;;;;;;;10.67;100.00;101263.72;6217573;23;20008;-79
2023/10/14 08:53:40;;;;;;;13.52;2.80;;;;;;;10.80;100.00;101295.69;6213010;23;20091;-83
2023/10/14 08:56:07;;;;;;;11.60;2.63;;;;;;;10.52;100.00;101234.41;6215700;23;20056;-87
2023/10/14 08:58:36;;;;;;;13.25;2.25;;;;;;;10.66;100.00;101264.66;6215600;23;20000;-83
2023/10/14 09:01:03;;;;;;;13.93;2.70;;;;;;;10.66;100.00;101260.31;6215640;23;20000;-83
2023/10/14 09:03:30;;;;;;;11.82;2.70;;;;;;;10.90;100.00;101300.25;6215595;23;20009;-83
2023/10/14 09:05:56;;;;;;;14.43;2.78;;;;;;;10.72;100.00;101259.97;6164090;23;20108;-79
2023/10/14 09:08:21;;;;;;;12.77;2.90;;;;;;;10.77;100.00;101264.88;6215250;23;20036;-83
2023/10/14 09:11:06;;;;;;;19.25;3.13;;;;;;;10.64;100.00;101244.06;6188505;23;20004;-81
2023/10/14 09:13:37;;;;;;;10.52;2.55;;;;;;;11.07;100.00;101306.22;6213369;23;20005;-88
2023/10/14 09:16:02;;;;;;;9.18;2.25;;;;;;;11.10;100.00;101306.84;6215632;23;20009;-88
2023/10/14 09:18:27;;;;;;;11.07;2.53;;;;;;;11.15;100.00;101312.59;6215951;23;20005;-79
2023/10/14 09:20:56;;;;;;;11.63;2.67;;;;;;;10.94;100.00;101261.31;6215531;23;20109;-82
2023/10/14 09:23:23;;;;;;;9.75;2.85;;;;;;;11.24;100.00;101306.06;6214008;23;20016;-84
2023/10/14 09:25:59;;;;;;;11.27;2.10;;;;;;;11.05;100.00;101269.28;6214979;23;20131;-86
2023/10/14 09:28:32;;;;;;;11.40;2.67;;;;;;;11.35;100.00;101305.44;6215306;23;20007;-83
2023/10/14 09:30:58;;;;;;;10.68;2.45;;;;;;;11.23;100.00;101272.56;6215242;23;20342;-79
2023/10/14 09:33:28;;;;;;;10.90;2.13;;;;;;;11.44;100.00;101303.16;6215418;23;20008;-80
2023/10/14 09:35:59;;;;;;;8.70;2.88;;;;;;;11.32;100.00;101275.44;6215428;23;20378;-81
2023/10/14 09:38:43;;;;;;;12.60;2.33;;;;;;;10.61;100.00;101152.09;6219828;22;20013;-80
2023/10/14 09:41:10;;;;;;;14.38;2.78;;;;;;;11.55;100.00;101305.09;6215072;23;20000;-83
2023/10/14 09:43:42;;;;;;;13.38;2.38;;;;;;;11.64;100.00;101309.72;6215645;23;20011;-82
2023/10/14 09:46:21;;;;;;;11.20;2.42;;;;;;;11.35;100.00;101245.97;6219870;22;20006;-81
2023/10/14 09:48:47;;;;;;;9.90;2.40;;;;;;;11.50;92.88;101250.22;6215224;23;20107;-84
2023/10/14 09:51:15;;;;;;;15.00;2.40;;;;;;;11.83;92.45;101306.91;6215149;23;20045;-83
2023/10/14 09:53:44;;;;;;;13.68;2.72;;;;;;;11.79;93.28;101315.72;6214477;23;20004;-81
2023/10/14 09:56:12;;;;;;;12.05;2.08;;;;;;;11.69;92.22;101317.22;6215364;23;20283;-85
2023/10/14 09:59:01;;;;;;;9.00;2.17;;;;;;;10.39;94.60;101137.91;6223900;22;20012;-84
2023/10/14 10:01:27;;;;;;;11.95;2.35;;;;;;;10.49;93.06;101168.28;6213189;23;20502;-84
2023/10/14 10:04:17;;;;;;;13.20;1.98;;;;;;;10.72;91.89;101205.72;6212996;23;20011;-83
2023/10/14 10:07:04;;;;;;;13.30;2.83;;;;;;;11.49;91.71;101344.25;6212938;23;20070;-85
2023/10/14 10:10:10;;;;;;;10.55;2.47;;;;;;;11.10;94.47;101282.75;6214044;23;20009;-80
2023/10/14 10:12:37;;;;;;;9.95;3.22;;;;;;;11.49;88.62;101339.91;6214539;23;20004;-82
2023/10/14 10:15:06;;;;;;;11.13;2.40;;;;;;;11.44;90.13;101349.72;6213100;23;20001;-79
2023/10/14 10:17:34;;;;;;;11.02;2.53;;;;;;;11.39;90.59;101353.47;6214621;23;20028;-85
2023/10/14 10:20:09;;;;;;;11.23;2.13;;;;;;;11.38;90.28;101344.03;6214928;23;20423;-86
2023/10/14 10:22:51;;;;;;;9.23;2.00;;;;;;;11.37;90.83;101347.56;6213337;23;20427;-80
2023/10/14 10:25:21;;;;;;;9.65;2.58;;;;;;;11.10;89.98;101295.69;6214856;23;20004;-84
2023/10/14 10:27:52;;;;;;;9.65;2.35;;;;;;;11.27;89.91;101324.00;6215054;23;20001;-77
2023/10/14 10:30:19;;;;;;;13.15;2.67;;;;;;;11.47;94.51;101333.16;6215124;23;20008;-81
2023/10/14 10:32:49;;;;;;;10.65;2.53;;;;;;;11.61;94.41;101353.06;6216290;23;20000;-80
2023/10/14 10:35:17;;;;;;;9.65;2.25;;;;;;;11.35;96.03;101306.28;6214911;23;20363;-80
2023/10/14 10:37:46;;;;;;;10.57;2.03;;;;;;;11.76;92.05;101354.72;6214568;23;20088;-76
2023/10/14 10:40:13;;;;;;;15.95;2.75;;;;;;;11.74;90.09;101346.25;6214653;23;20080;-82
2023/10/14 10:42:52;;;;;;;10.95;2.88;;;;;;;11.89;92.43;101357.44;6215020;23;20032;-81
2023/10/14 10:45:31;;;;;;;12.00;2.53;;;;;;;11.89;88.75;101366.03;6213562;23;20009;-80
2023/10/14 10:48:03;;;;;;;11.77;2.28;;;;;;;11.98;92.03;101375.84;6214653;23;20001;-84
2023/10/14 10:50:39;;;;;;;10.18;2.25;;;;;;;12.04;93.24;101366.88;6213392;23;20008;-86
2023/10/14 10:53:10;;;;;;;11.85;2.30;;;;;;;12.09;91.61;101377.78;6215225;23;20058;-82
2023/10/14 10:55:46;;;;;;;11.68;2.33;;;;;;;12.04;90.48;101374.66;6215172;23;20037;-78
2023/10/14 10:58:12;;;;;;;13.40;2.30;;;;;;;11.92;89.68;101359.88;6214024;23;20008;-84
2023/10/14 11:00:40;;;;;;;10.75;2.15;;;;;;;11.95;89.47;101375.22;6214319;23;20012;-84
2023/10/14 11:03:06;;;;;;;9.57;2.20;;;;;;;11.84;93.18;101351.72;6214665;23;20005;-81
2023/10/14 11:05:33;;;;;;;12.57;2.65;;;;;;;11.79;89.49;101344.19;6214329;23;20387;-79
2023/10/14 11:08:00;;;;;;;12.07;2.00;;;;;;;12.05;89.15;101379.72;6215850;23;20090;-78
2023/10/14 11:10:30;;;;;;;11.30;2.28;;;;;;;11.98;86.98;101364.66;6214662;23;20004;-78
2023/10/14 11:12:57;;;;;;;11.60;1.90;;;;;;;12.08;87.66;101376.13;6216354;23;20078;-75
2023/10/14 11:15:25;;;;;;;11.68;2.78;;;;;;;12.18;82.24;101387.59;6216586;23;20426;-81
2023/10/14 11:17:58;;;;;;;9.35;1.70;;;;;;;12.22;81.94;101388.25;6216393;23;20000;-79
2023/10/14 11:20:32;;;;;;;9.98;1.88;;;;;;;12.29;80.64;101392.97;6216289;23;20023;-80
2023/10/14 11:22:59;;;;;;;9.13;2.33;;;;;;;12.34;82.20;101390.91;6217104;23;20016;-76
2023/10/14 11:25:25;;;;;;;7.82;1.58;;;;;;;12.21;81.66;101378.81;6216386;23;20001;-78
2023/10/14 11:27:54;;;;;;;10.90;1.92;;;;;;;12.16;82.49;101363.56;6216346;23;20008;-81
2023/10/14 11:30:20;;;;;;;10.02;1.98;;;;;;;12.38;79.61;101383.78;6216609;23;20027;-72
2023/10/14 11:32:50;;;;;;;9.32;1.73;;;;;;;12.33;73.19;101389.25;6216220;23;20418;-73
2023/10/14 11:35:21;;;;;;;8.52;1.67;;;;;;;12.21;75.01;101382.25;6216379;23;20099;-72
2023/10/14 11:37:54;;;;;;;9.98;1.67;;;;;;;12.34;73.14;101393.50;6216597;23;20004;-74
2023/10/14 11:40:25;;;;;;;9.65;2.10;;;;;;;12.40;74.83;101396.66;6216227;23;20054;-74
2023/10/14 11:42:54;;;;;;;10.52;1.92;;;;;;;12.22;74.61;101370.94;6216505;23;20419;-74
2023/10/14 11:45:20;;;;;;;8.55;1.95;;;;;;;12.25;75.11;101369.94;6216387;23;20005;-75
2023/10/14 11:47:46;;;;;;;5.72;1.60;;;;;;;12.49;75.07;101399.50;6215982;23;20059;-76
2023/10/14 11:50:12;;;;;;;9.23;1.85;;;;;;;12.61;76.33;101400.50;6216313;23;20001;-72
2023/10/14 11:52:42;;;;;;;9.48;2.13;;;;;;;12.74;75.06;101387.59;6216527;23;20015;-75
2023/10/14 11:55:14;;;;;;;10.43;1.92;;;;;;;12.80;74.58;101403.59;6216475;23;20018;-76
2023/10/14 11:57:41;;;;;;;;;;;;;;;12.81;75.77;101402.69;6217130;23;20007;-76